CPA805 CYYZ-VHHH
Flight info
| Callsign | CPA805 |
|---|---|
| Flight time | N/A |
| Altitude | 34000 |
| Route | IKLEN3 TONNY DCT YEE DCT 50N082W 55N085W 60N089W 65N095W 70N105W 72N110W 7430N12000W/N0497F360 76N130W DCT AGMIF DCT INKIS/K0922F360 DCT 7645N17900W 7537N17200E 7400N16345E DCT LUNOG/K0915F380 M151 MOKSI DCT SIMLI/K0919S1160 A588 BUBDI/K0900S1220 A588 HRB G212 VYK W37 GUSIV/K0896S1250 W37 PEXID/K0900S1220 W37 OMBEB/K0902S1250 R473 NNX/K0907S1220 R473 WYN W18 NLG W23 ZUH R473 SIERA |
| Aircraft | A359/H-SDE2E3GHIJ3J4J5LM1ORWXY/LB1D1 |
Departure
| Time | 2026-05-05 05:38 |
|---|---|
| Airport | Toronto Pearson International Airport (CYYZ) |
Arrival
| Time | N/A |
|---|---|
| Airport | Hong Kong International Airport (VHHH) |
| Time | Latitude | Longitude | Altitude | Speed | Heading |
|---|---|---|---|---|---|
| 2026-05-05 05:22 | 43.68174 | -79.61978 | 575 ft | 0 kts | 343° |
| 2026-05-05 05:27 | 43.68155 | -79.61970 | 575 ft | 4 kts | 339° |
| 2026-05-05 05:27 | 43.68131 | -79.61955 | 575 ft | 4 kts | 330° |
| 2026-05-05 05:27 | 43.68099 | -79.61909 | 576 ft | 4 kts | 248° |
| 2026-05-05 05:28 | 43.68101 | -79.61902 | 575 ft | 0 kts | 226° |
| 2026-05-05 05:30 | 43.68100 | -79.61903 | 575 ft | 2 kts | 226° |
| 2026-05-05 05:30 | 43.68065 | -79.61951 | 575 ft | 12 kts | 220° |
| 2026-05-05 05:31 | 43.67991 | -79.62003 | 575 ft | 8 kts | 210° |
| 2026-05-05 05:31 | 43.67958 | -79.62058 | 574 ft | 7 kts | 255° |
| 2026-05-05 05:31 | 43.67974 | -79.62101 | 574 ft | 6 kts | 313° |
| 2026-05-05 05:31 | 43.68013 | -79.62154 | 569 ft | 10 kts | 316° |
| 2026-05-05 05:32 | 43.68062 | -79.62216 | 576 ft | 10 kts | 319° |
| 2026-05-05 05:32 | 43.68113 | -79.62283 | 574 ft | 12 kts | 315° |
| 2026-05-05 05:32 | 43.68193 | -79.62388 | 574 ft | 18 kts | 316° |
| 2026-05-05 05:32 | 43.68286 | -79.62502 | 572 ft | 17 kts | 319° |
| 2026-05-05 05:33 | 43.68373 | -79.62611 | 577 ft | 17 kts | 317° |
| 2026-05-05 05:33 | 43.68456 | -79.62718 | 575 ft | 17 kts | 316° |
| 2026-05-05 05:33 | 43.68539 | -79.62827 | 573 ft | 16 kts | 316° |
| 2026-05-05 05:33 | 43.68621 | -79.62934 | 573 ft | 16 kts | 316° |
| 2026-05-05 05:34 | 43.68702 | -79.63039 | 572 ft | 16 kts | 317° |
| 2026-05-05 05:34 | 43.68779 | -79.63140 | 572 ft | 15 kts | 316° |
| 2026-05-05 05:34 | 43.68856 | -79.63241 | 575 ft | 16 kts | 316° |
| 2026-05-05 05:34 | 43.68936 | -79.63346 | 579 ft | 16 kts | 316° |
| 2026-05-05 05:35 | 43.69017 | -79.63453 | 576 ft | 17 kts | 316° |
| 2026-05-05 05:35 | 43.69104 | -79.63522 | 576 ft | 12 kts | 9° |
| 2026-05-05 05:35 | 43.69169 | -79.63458 | 580 ft | 12 kts | 40° |
| 2026-05-05 05:35 | 43.69245 | -79.63423 | 572 ft | 12 kts | 1° |
| 2026-05-05 05:36 | 43.69330 | -79.63399 | 575 ft | 12 kts | 27° |
| 2026-05-05 05:36 | 43.69396 | -79.63340 | 575 ft | 10 kts | 33° |
| 2026-05-05 05:36 | 43.69460 | -79.63320 | 579 ft | 10 kts | 340° |
| 2026-05-05 05:36 | 43.69480 | -79.63396 | 576 ft | 9 kts | 251° |
| 2026-05-05 05:37 | 43.69441 | -79.63468 | 575 ft | 11 kts | 228° |
| 2026-05-05 05:37 | 43.69325 | -79.63638 | 574 ft | 46 kts | 226° |
| 2026-05-05 05:37 | 43.68980 | -79.64135 | 581 ft | 92 kts | 226° |
| 2026-05-05 05:37 | 43.68443 | -79.64915 | 580 ft | 131 kts | 226° |
| 2026-05-05 05:38 | 43.67737 | -79.65943 | 634 ft | 158 kts | 226° |
| 2026-05-05 05:38 | 43.67047 | -79.67056 | 1039 ft | 152 kts | 237° |
| 2026-05-05 05:38 | 43.66447 | -79.68315 | 1256 ft | 165 kts | 235° |
| 2026-05-05 05:38 | 43.65790 | -79.69673 | 1504 ft | 175 kts | 234° |
| 2026-05-05 05:39 | 43.65035 | -79.71059 | 1827 ft | 186 kts | 231° |
| 2026-05-05 05:39 | 43.64241 | -79.72535 | 2118 ft | 198 kts | 236° |
| 2026-05-05 05:39 | 43.63646 | -79.74277 | 2532 ft | 205 kts | 252° |
| 2026-05-05 05:39 | 43.63559 | -79.76262 | 3011 ft | 215 kts | 274° |
| 2026-05-05 05:40 | 43.64251 | -79.78164 | 3412 ft | 239 kts | 307° |
| 2026-05-05 05:40 | 43.65686 | -79.79480 | 3856 ft | 255 kts | 322° |
| 2026-05-05 05:40 | 43.67276 | -79.80609 | 4319 ft | 258 kts | 323° |
| 2026-05-05 05:40 | 43.68871 | -79.81761 | 4808 ft | 259 kts | 323° |
| 2026-05-05 05:41 | 43.70466 | -79.82941 | 5268 ft | 262 kts | 322° |
| 2026-05-05 05:41 | 43.72090 | -79.84157 | 5696 ft | 268 kts | 323° |
| 2026-05-05 05:41 | 43.73885 | -79.85041 | 6150 ft | 284 kts | 345° |
| 2026-05-05 05:41 | 43.75884 | -79.84723 | 6621 ft | 302 kts | 17° |
| 2026-05-05 05:42 | 43.77693 | -79.83174 | 7139 ft | 309 kts | 34° |
| 2026-05-05 05:42 | 43.79378 | -79.81330 | 7763 ft | 307 kts | 34° |
| 2026-05-05 05:42 | 43.81060 | -79.79506 | 8282 ft | 309 kts | 34° |
| 2026-05-05 05:42 | 43.82769 | -79.77681 | 8774 ft | 311 kts | 34° |
| 2026-05-05 05:43 | 43.84522 | -79.75911 | 9307 ft | 311 kts | 26° |
| 2026-05-05 05:43 | 43.86496 | -79.74794 | 9808 ft | 305 kts | 9° |
| 2026-05-05 05:43 | 43.88567 | -79.74056 | 10181 ft | 312 kts | 8° |
| 2026-05-05 05:43 | 43.90717 | -79.73322 | 10404 ft | 325 kts | 8° |
| 2026-05-05 05:44 | 43.92949 | -79.72548 | 10634 ft | 337 kts | 9° |
| 2026-05-05 05:44 | 43.95267 | -79.71734 | 10863 ft | 350 kts | 9° |
| 2026-05-05 05:44 | 43.97665 | -79.70887 | 11139 ft | 361 kts | 9° |
| 2026-05-05 05:44 | 44.00138 | -79.70009 | 11394 ft | 373 kts | 10° |
| 2026-05-05 05:45 | 44.02687 | -79.69102 | 11618 ft | 384 kts | 10° |
| 2026-05-05 05:45 | 44.05330 | -79.68404 | 11814 ft | 389 kts | 358° |
| 2026-05-05 05:45 | 44.08010 | -79.68772 | 12035 ft | 389 kts | 342° |
| 2026-05-05 05:45 | 44.10666 | -79.69651 | 12339 ft | 395 kts | 341° |
| 2026-05-05 05:46 | 44.13348 | -79.70566 | 12749 ft | 399 kts | 341° |
| 2026-05-05 05:46 | 44.16042 | -79.71474 | 13202 ft | 403 kts | 341° |
| 2026-05-05 05:46 | 44.18810 | -79.72342 | 13583 ft | 408 kts | 344° |
| 2026-05-05 05:46 | 44.21586 | -79.72995 | 14005 ft | 412 kts | 347° |
| 2026-05-05 05:47 | 44.24445 | -79.73528 | 14412 ft | 416 kts | 348° |
| 2026-05-05 05:47 | 44.27368 | -79.74009 | 14840 ft | 419 kts | 348° |
| 2026-05-05 05:47 | 44.30231 | -79.74466 | 15260 ft | 421 kts | 348° |
| 2026-05-05 05:47 | 44.33148 | -79.74941 | 15655 ft | 424 kts | 347° |
| 2026-05-05 05:48 | 44.36126 | -79.75441 | 16085 ft | 426 kts | 347° |
| 2026-05-05 05:48 | 44.39037 | -79.75943 | 16462 ft | 429 kts | 347° |
| 2026-05-05 05:48 | 44.42007 | -79.76465 | 16853 ft | 431 kts | 347° |
| 2026-05-05 05:48 | 44.44990 | -79.76993 | 17270 ft | 434 kts | 346° |
| 2026-05-05 05:49 | 44.47996 | -79.77529 | 17653 ft | 437 kts | 346° |
| 2026-05-05 05:49 | 44.51016 | -79.78068 | 18016 ft | 439 kts | 346° |
| 2026-05-05 05:49 | 44.54100 | -79.78618 | 18388 ft | 442 kts | 346° |
| 2026-05-05 05:49 | 44.57102 | -79.79203 | 18812 ft | 440 kts | 343° |
| 2026-05-05 05:50 | 44.60085 | -79.80095 | 19187 ft | 439 kts | 340° |
| 2026-05-05 05:50 | 44.63059 | -79.81101 | 19561 ft | 440 kts | 339° |
| 2026-05-05 05:50 | 44.66031 | -79.82169 | 19952 ft | 442 kts | 338° |
| 2026-05-05 05:50 | 44.69050 | -79.83286 | 20348 ft | 444 kts | 338° |
| 2026-05-05 05:51 | 44.71997 | -79.84388 | 20722 ft | 446 kts | 338° |
| 2026-05-05 05:51 | 44.75009 | -79.85515 | 21163 ft | 448 kts | 338° |
| 2026-05-05 05:51 | 44.78025 | -79.86638 | 21594 ft | 449 kts | 338° |
| 2026-05-05 05:51 | 44.81055 | -79.87764 | 21955 ft | 452 kts | 338° |
| 2026-05-05 05:52 | 44.84103 | -79.88895 | 22315 ft | 454 kts | 338° |
| 2026-05-05 05:52 | 44.87164 | -79.90029 | 22714 ft | 456 kts | 338° |
| 2026-05-05 05:52 | 44.90241 | -79.91170 | 23090 ft | 458 kts | 338° |
| 2026-05-05 05:52 | 44.93332 | -79.92317 | 23399 ft | 461 kts | 338° |
| 2026-05-05 05:53 | 44.96445 | -79.93473 | 23717 ft | 463 kts | 338° |
| 2026-05-05 05:53 | 44.99565 | -79.94633 | 24027 ft | 466 kts | 338° |
| 2026-05-05 05:53 | 45.02707 | -79.95802 | 24350 ft | 467 kts | 338° |
| 2026-05-05 05:53 | 45.05857 | -79.96976 | 24658 ft | 470 kts | 338° |
| 2026-05-05 05:54 | 45.09023 | -79.98158 | 24976 ft | 471 kts | 338° |
| 2026-05-05 05:54 | 45.12207 | -79.99349 | 25260 ft | 475 kts | 337° |
| 2026-05-05 05:54 | 45.15406 | -80.00548 | 25535 ft | 477 kts | 336° |
| 2026-05-05 05:54 | 45.18623 | -80.01754 | 25857 ft | 479 kts | 336° |
| 2026-05-05 05:55 | 45.21849 | -80.02963 | 26164 ft | 481 kts | 336° |
| 2026-05-05 05:55 | 45.25087 | -80.04179 | 26461 ft | 483 kts | 336° |
| 2026-05-05 05:55 | 45.28342 | -80.05403 | 26743 ft | 485 kts | 336° |
| 2026-05-05 05:55 | 45.31603 | -80.06630 | 27030 ft | 486 kts | 336° |
| 2026-05-05 05:56 | 45.34885 | -80.07865 | 27322 ft | 488 kts | 336° |
| 2026-05-05 05:56 | 45.38168 | -80.09102 | 27655 ft | 489 kts | 336° |
| 2026-05-05 05:56 | 45.40348 | -80.09924 | 27838 ft | 490 kts | 336° |
| 2026-05-05 05:56 | 45.44723 | -80.11578 | 28155 ft | 492 kts | 336° |
| 2026-05-05 05:57 | 45.46958 | -80.12425 | 28313 ft | 494 kts | 336° |
| 2026-05-05 05:57 | 45.51355 | -80.14090 | 28768 ft | 493 kts | 336° |
| 2026-05-05 05:57 | 45.54665 | -80.15343 | 29162 ft | 491 kts | 336° |
| 2026-05-05 05:57 | 45.57960 | -80.16591 | 29602 ft | 488 kts | 335° |
| 2026-05-05 05:58 | 45.60174 | -80.17430 | 29822 ft | 487 kts | 335° |
| 2026-05-05 05:58 | 45.63451 | -80.18677 | 30063 ft | 487 kts | 335° |
| 2026-05-05 05:58 | 45.66725 | -80.19926 | 30325 ft | 487 kts | 335° |
| 2026-05-05 05:58 | 45.69995 | -80.21175 | 30573 ft | 486 kts | 335° |
| 2026-05-05 05:59 | 45.73264 | -80.22426 | 30805 ft | 486 kts | 335° |
| 2026-05-05 05:59 | 45.76531 | -80.23678 | 31060 ft | 486 kts | 335° |
| 2026-05-05 05:59 | 45.79796 | -80.24930 | 31269 ft | 486 kts | 335° |
| 2026-05-05 05:59 | 45.83057 | -80.26182 | 31485 ft | 485 kts | 335° |
| 2026-05-05 06:00 | 45.87377 | -80.27841 | 31758 ft | 485 kts | 335° |
| 2026-05-05 06:00 | 45.89577 | -80.28687 | 31877 ft | 485 kts | 335° |
| 2026-05-05 06:00 | 45.92831 | -80.29940 | 32062 ft | 485 kts | 335° |
| 2026-05-05 06:00 | 45.96087 | -80.31196 | 32301 ft | 484 kts | 334° |
| 2026-05-05 06:01 | 45.99308 | -80.32439 | 32421 ft | 485 kts | 334° |
| 2026-05-05 06:01 | 46.02565 | -80.33700 | 32587 ft | 485 kts | 334° |
| 2026-05-05 06:01 | 46.05826 | -80.34961 | 32787 ft | 485 kts | 334° |
| 2026-05-05 06:01 | 46.09078 | -80.36219 | 32955 ft | 484 kts | 334° |
| 2026-05-05 06:02 | 46.12334 | -80.37481 | 33111 ft | 484 kts | 334° |
| 2026-05-05 06:02 | 46.15584 | -80.38743 | 33266 ft | 484 kts | 334° |
| 2026-05-05 06:02 | 46.18832 | -80.40006 | 33481 ft | 483 kts | 334° |
| 2026-05-05 06:02 | 46.22079 | -80.41270 | 33544 ft | 485 kts | 334° |
| 2026-05-05 06:03 | 46.28634 | -80.43833 | 33542 ft | 490 kts | 334° |
| 2026-05-05 06:03 | 46.35210 | -80.46401 | 33542 ft | 489 kts | 334° |
| 2026-05-05 06:04 | 46.41781 | -80.48970 | 33540 ft | 489 kts | 334° |
| 2026-05-05 06:04 | 46.48350 | -80.51549 | 33539 ft | 489 kts | 334° |
| 2026-05-05 06:05 | 46.54918 | -80.54130 | 33539 ft | 489 kts | 334° |
| 2026-05-05 06:05 | 46.61487 | -80.56716 | 33540 ft | 489 kts | 334° |
| 2026-05-05 06:06 | 46.68050 | -80.59308 | 33534 ft | 488 kts | 334° |
| 2026-05-05 06:06 | 46.74606 | -80.61911 | 33533 ft | 488 kts | 334° |
| 2026-05-05 06:07 | 46.81158 | -80.64520 | 33542 ft | 488 kts | 334° |
| 2026-05-05 06:07 | 46.87730 | -80.67141 | 33524 ft | 490 kts | 334° |
| 2026-05-05 06:08 | 46.94314 | -80.69773 | 33524 ft | 490 kts | 334° |
| 2026-05-05 06:08 | 47.00892 | -80.72410 | 33525 ft | 490 kts | 334° |
| 2026-05-05 06:09 | 47.07482 | -80.75062 | 33523 ft | 492 kts | 334° |
| 2026-05-05 06:09 | 47.14085 | -80.77725 | 33525 ft | 493 kts | 334° |
| 2026-05-05 06:10 | 47.20569 | -80.80342 | 33523 ft | 493 kts | 334° |
| 2026-05-05 06:10 | 47.27189 | -80.83025 | 33515 ft | 495 kts | 334° |
| 2026-05-05 06:11 | 47.33864 | -80.85745 | 33543 ft | 501 kts | 334° |
| 2026-05-05 06:11 | 47.40612 | -80.88499 | 33518 ft | 505 kts | 335° |
| 2026-05-05 06:12 | 47.47402 | -80.91253 | 33515 ft | 506 kts | 335° |
| 2026-05-05 06:12 | 47.54203 | -80.94024 | 33509 ft | 507 kts | 335° |
| 2026-05-05 06:13 | 47.61006 | -80.96811 | 33512 ft | 507 kts | 334° |
| 2026-05-05 06:13 | 47.67811 | -80.99611 | 33532 ft | 508 kts | 334° |
| 2026-05-05 06:14 | 47.74645 | -81.02433 | 33498 ft | 511 kts | 334° |
| 2026-05-05 06:14 | 47.81495 | -81.05267 | 33509 ft | 511 kts | 334° |
| 2026-05-05 06:15 | 47.88349 | -81.08109 | 33535 ft | 511 kts | 335° |
| 2026-05-05 06:15 | 47.95208 | -81.10964 | 33497 ft | 513 kts | 334° |
| 2026-05-05 06:16 | 48.02087 | -81.13833 | 33492 ft | 513 kts | 334° |
| 2026-05-05 06:16 | 48.08971 | -81.16710 | 33489 ft | 513 kts | 334° |
| 2026-05-05 06:17 | 48.15853 | -81.19600 | 33484 ft | 514 kts | 335° |
| 2026-05-05 06:17 | 48.22748 | -81.22505 | 33486 ft | 515 kts | 335° |
| 2026-05-05 06:18 | 48.29604 | -81.25396 | 33475 ft | 515 kts | 335° |
| 2026-05-05 06:18 | 48.36487 | -81.28307 | 33468 ft | 515 kts | 335° |
| 2026-05-05 06:19 | 48.43394 | -81.31234 | 33468 ft | 515 kts | 335° |
| 2026-05-05 06:19 | 48.47160 | -81.32835 | 33475 ft | 515 kts | 335° |
| 2026-05-05 06:20 | 48.54039 | -81.35766 | 33438 ft | 513 kts | 336° |
| 2026-05-05 06:20 | 48.60906 | -81.38699 | 33440 ft | 513 kts | 336° |
| 2026-05-05 06:21 | 48.67768 | -81.41640 | 33440 ft | 513 kts | 336° |
| 2026-05-05 06:21 | 48.74630 | -81.44590 | 33444 ft | 513 kts | 336° |
| 2026-05-05 06:22 | 48.81493 | -81.47548 | 33445 ft | 512 kts | 336° |
| 2026-05-05 06:22 | 48.88355 | -81.50513 | 33442 ft | 512 kts | 336° |
| 2026-05-05 06:23 | 48.95206 | -81.53483 | 33437 ft | 512 kts | 336° |
| 2026-05-05 06:23 | 49.02067 | -81.56467 | 33441 ft | 512 kts | 337° |
| 2026-05-05 06:24 | 49.08922 | -81.59454 | 33428 ft | 513 kts | 337° |
| 2026-05-05 06:24 | 49.15772 | -81.62453 | 33423 ft | 512 kts | 338° |
| 2026-05-05 06:25 | 49.22617 | -81.65451 | 33432 ft | 511 kts | 338° |
| 2026-05-05 06:25 | 49.29458 | -81.68457 | 33420 ft | 512 kts | 338° |
| 2026-05-05 06:26 | 49.36299 | -81.71473 | 33408 ft | 512 kts | 338° |
| 2026-05-05 06:26 | 49.43146 | -81.74501 | 33401 ft | 512 kts | 338° |
| 2026-05-05 06:27 | 49.53415 | -81.79058 | 33395 ft | 513 kts | 339° |
| 2026-05-05 06:28 | 49.60269 | -81.82112 | 33390 ft | 513 kts | 339° |
| 2026-05-05 06:28 | 49.67119 | -81.85173 | 33390 ft | 513 kts | 339° |
| 2026-05-05 06:29 | 49.73940 | -81.88186 | 33388 ft | 512 kts | 339° |
| 2026-05-05 06:29 | 49.80776 | -81.91284 | 33378 ft | 512 kts | 339° |
| 2026-05-05 06:30 | 49.87663 | -81.94412 | 33369 ft | 512 kts | 339° |
| 2026-05-05 06:30 | 49.94459 | -81.97493 | 33370 ft | 512 kts | 340° |
| 2026-05-05 06:31 | 50.01311 | -82.00604 | 33371 ft | 513 kts | 339° |
| 2026-05-05 06:31 | 50.08059 | -82.04088 | 33383 ft | 511 kts | 336° |
| 2026-05-05 06:32 | 50.14756 | -82.07797 | 33371 ft | 511 kts | 336° |
| 2026-05-05 06:32 | 50.21469 | -82.11475 | 33361 ft | 512 kts | 337° |
| 2026-05-05 06:33 | 50.28208 | -82.15117 | 33357 ft | 512 kts | 337° |
| 2026-05-05 06:33 | 50.34943 | -82.18746 | 33353 ft | 511 kts | 337° |
| 2026-05-05 06:34 | 50.41671 | -82.22383 | 33352 ft | 511 kts | 338° |
| 2026-05-05 06:34 | 50.48400 | -82.26036 | 33342 ft | 512 kts | 338° |
| 2026-05-05 06:35 | 50.55130 | -82.29699 | 33334 ft | 512 kts | 338° |
| 2026-05-05 06:35 | 50.61856 | -82.33373 | 33334 ft | 512 kts | 338° |
| 2026-05-05 06:36 | 50.68581 | -82.37058 | 33326 ft | 512 kts | 338° |
| 2026-05-05 06:36 | 50.75311 | -82.40757 | 33320 ft | 512 kts | 338° |
| 2026-05-05 06:37 | 50.82051 | -82.44472 | 33312 ft | 512 kts | 338° |
| 2026-05-05 06:37 | 50.88778 | -82.48191 | 33313 ft | 512 kts | 338° |
| 2026-05-05 06:38 | 50.95500 | -82.51918 | 33302 ft | 512 kts | 338° |
| 2026-05-05 06:38 | 51.02214 | -82.55654 | 33300 ft | 511 kts | 338° |
| 2026-05-05 06:39 | 51.08926 | -82.59400 | 33301 ft | 511 kts | 338° |
| 2026-05-05 06:39 | 51.15643 | -82.63160 | 33292 ft | 512 kts | 338° |
| 2026-05-05 06:40 | 51.22374 | -82.66937 | 33284 ft | 513 kts | 338° |
| 2026-05-05 06:40 | 51.29094 | -82.70722 | 33284 ft | 512 kts | 338° |
| 2026-05-05 06:41 | 51.35818 | -82.74521 | 33279 ft | 512 kts | 338° |
| 2026-05-05 06:41 | 51.42552 | -82.78337 | 33270 ft | 514 kts | 338° |
| 2026-05-05 06:42 | 51.49241 | -82.82138 | 33268 ft | 513 kts | 338° |
| 2026-05-05 06:42 | 51.55963 | -82.85971 | 33259 ft | 512 kts | 338° |
| 2026-05-05 06:43 | 51.62681 | -82.89816 | 33254 ft | 513 kts | 339° |
| 2026-05-05 06:43 | 51.68325 | -82.93057 | 33253 ft | 514 kts | 338° |
| 2026-05-05 06:44 | 51.75055 | -82.96940 | 33250 ft | 515 kts | 338° |
| 2026-05-05 06:44 | 51.81759 | -83.00815 | 33242 ft | 514 kts | 338° |
| 2026-05-05 06:45 | 51.88498 | -83.04720 | 33245 ft | 515 kts | 339° |
| 2026-05-05 06:45 | 51.95249 | -83.08641 | 33235 ft | 515 kts | 339° |
| 2026-05-05 06:46 | 52.01994 | -83.12570 | 33230 ft | 515 kts | 339° |
| 2026-05-05 06:46 | 52.08740 | -83.16509 | 33239 ft | 514 kts | 339° |
| 2026-05-05 06:47 | 52.15470 | -83.20459 | 33230 ft | 515 kts | 339° |
| 2026-05-05 06:47 | 52.22211 | -83.24428 | 33228 ft | 515 kts | 339° |
| 2026-05-05 06:48 | 52.28945 | -83.28404 | 33231 ft | 515 kts | 339° |
| 2026-05-05 06:48 | 52.35676 | -83.32391 | 33227 ft | 515 kts | 339° |
| 2026-05-05 06:49 | 52.42422 | -83.36399 | 33220 ft | 516 kts | 339° |
| 2026-05-05 06:49 | 52.49168 | -83.40420 | 33218 ft | 516 kts | 339° |
| 2026-05-05 06:50 | 52.55910 | -83.44452 | 33229 ft | 516 kts | 339° |
| 2026-05-05 06:50 | 52.62654 | -83.48499 | 33227 ft | 516 kts | 339° |
| 2026-05-05 06:51 | 52.69394 | -83.52557 | 33222 ft | 516 kts | 339° |
| 2026-05-05 06:51 | 52.76133 | -83.56627 | 33232 ft | 516 kts | 339° |
| 2026-05-05 06:52 | 52.82870 | -83.60709 | 33226 ft | 516 kts | 339° |
| 2026-05-05 06:52 | 52.89608 | -83.64806 | 33223 ft | 516 kts | 339° |
| 2026-05-05 06:53 | 52.96336 | -83.68910 | 33222 ft | 515 kts | 339° |
| 2026-05-05 06:53 | 53.03020 | -83.73001 | 33229 ft | 515 kts | 339° |
| 2026-05-05 06:54 | 53.09749 | -83.77133 | 33219 ft | 515 kts | 339° |
| 2026-05-05 06:54 | 53.16476 | -83.81278 | 33225 ft | 515 kts | 339° |
| 2026-05-05 06:55 | 53.23191 | -83.85429 | 33241 ft | 515 kts | 339° |
| 2026-05-05 06:55 | 53.29911 | -83.89597 | 33229 ft | 515 kts | 339° |
| 2026-05-05 06:56 | 53.36620 | -83.93773 | 33229 ft | 515 kts | 339° |
| 2026-05-05 06:56 | 53.43330 | -83.97963 | 33227 ft | 515 kts | 339° |
| 2026-05-05 06:57 | 53.50040 | -84.02168 | 33237 ft | 515 kts | 339° |
| 2026-05-05 06:57 | 53.56745 | -84.06383 | 33236 ft | 514 kts | 339° |
| 2026-05-05 06:58 | 53.63448 | -84.10612 | 33231 ft | 515 kts | 339° |
| 2026-05-05 06:58 | 53.70156 | -84.14858 | 33232 ft | 515 kts | 339° |
| 2026-05-05 06:59 | 53.76863 | -84.19118 | 33245 ft | 515 kts | 339° |
| 2026-05-05 06:59 | 53.83562 | -84.23387 | 33239 ft | 515 kts | 339° |
| 2026-05-05 07:00 | 53.90223 | -84.27648 | 33239 ft | 515 kts | 339° |
| 2026-05-05 07:00 | 53.96970 | -84.31976 | 33252 ft | 515 kts | 339° |
| 2026-05-05 07:01 | 54.03677 | -84.36295 | 33251 ft | 515 kts | 339° |
| 2026-05-05 07:01 | 54.10384 | -84.40629 | 33246 ft | 515 kts | 339° |
| 2026-05-05 07:02 | 54.17088 | -84.44977 | 33243 ft | 516 kts | 339° |
| 2026-05-05 07:02 | 54.23755 | -84.49314 | 33239 ft | 516 kts | 339° |
| 2026-05-05 07:03 | 54.30460 | -84.53692 | 33243 ft | 516 kts | 339° |
| 2026-05-05 07:03 | 54.37169 | -84.58088 | 33247 ft | 516 kts | 339° |
| 2026-05-05 07:04 | 54.43875 | -84.62497 | 33247 ft | 517 kts | 339° |
| 2026-05-05 07:04 | 54.50587 | -84.66927 | 33253 ft | 516 kts | 339° |
| 2026-05-05 07:05 | 54.57295 | -84.71368 | 33252 ft | 516 kts | 339° |
| 2026-05-05 07:05 | 54.63996 | -84.75820 | 33254 ft | 516 kts | 339° |
| 2026-05-05 07:06 | 54.70697 | -84.80290 | 33255 ft | 517 kts | 339° |
| 2026-05-05 07:06 | 54.77409 | -84.84782 | 33266 ft | 517 kts | 339° |
| 2026-05-05 07:07 | 54.84114 | -84.89284 | 33262 ft | 517 kts | 339° |
| 2026-05-05 07:07 | 54.90819 | -84.93804 | 33263 ft | 517 kts | 339° |
| 2026-05-05 07:08 | 54.97536 | -84.98349 | 33272 ft | 519 kts | 339° |
| 2026-05-05 07:08 | 55.04266 | -85.02935 | 33274 ft | 519 kts | 338° |
| 2026-05-05 07:09 | 55.10980 | -85.07593 | 33287 ft | 519 kts | 338° |
| 2026-05-05 07:09 | 55.17668 | -85.12257 | 33274 ft | 517 kts | 338° |
| 2026-05-05 07:10 | 55.24362 | -85.16934 | 33290 ft | 519 kts | 338° |
| 2026-05-05 07:10 | 55.31021 | -85.21597 | 33291 ft | 519 kts | 338° |
| 2026-05-05 07:11 | 55.37774 | -85.26343 | 33295 ft | 519 kts | 338° |
| 2026-05-05 07:11 | 55.44437 | -85.31041 | 33301 ft | 519 kts | 338° |
| 2026-05-05 07:12 | 55.51143 | -85.35789 | 33324 ft | 520 kts | 338° |
| 2026-05-05 07:12 | 55.57856 | -85.40559 | 33324 ft | 520 kts | 338° |
| 2026-05-05 07:13 | 55.64561 | -85.45341 | 33342 ft | 520 kts | 338° |
| 2026-05-05 07:13 | 55.71272 | -85.50144 | 33341 ft | 520 kts | 338° |
| 2026-05-05 07:14 | 55.77985 | -85.54964 | 33358 ft | 521 kts | 338° |
| 2026-05-05 07:14 | 55.84704 | -85.59812 | 33372 ft | 521 kts | 338° |
| 2026-05-05 07:15 | 55.91408 | -85.64668 | 33374 ft | 520 kts | 338° |
| 2026-05-05 07:15 | 55.98110 | -85.69538 | 33391 ft | 520 kts | 338° |
| 2026-05-05 07:16 | 56.04821 | -85.74433 | 33398 ft | 521 kts | 338° |
| 2026-05-05 07:16 | 56.11535 | -85.79344 | 33405 ft | 522 kts | 338° |
| 2026-05-05 07:17 | 56.18255 | -85.84282 | 33402 ft | 522 kts | 338° |
| 2026-05-05 07:17 | 56.24969 | -85.89234 | 33410 ft | 521 kts | 338° |
| 2026-05-05 07:18 | 56.31666 | -85.94195 | 33419 ft | 520 kts | 338° |
| 2026-05-05 07:18 | 56.38351 | -85.99165 | 33432 ft | 520 kts | 338° |
| 2026-05-05 07:19 | 56.45047 | -86.04164 | 33429 ft | 521 kts | 338° |
| 2026-05-05 07:19 | 56.51747 | -86.09183 | 33431 ft | 522 kts | 338° |
| 2026-05-05 07:20 | 56.58393 | -86.14177 | 33454 ft | 520 kts | 338° |
| 2026-05-05 07:20 | 56.65077 | -86.19218 | 33454 ft | 520 kts | 338° |
| 2026-05-05 07:21 | 56.71762 | -86.24290 | 33463 ft | 520 kts | 338° |
| 2026-05-05 07:21 | 56.78449 | -86.29378 | 33475 ft | 521 kts | 338° |
| 2026-05-05 07:22 | 56.85131 | -86.34476 | 33483 ft | 521 kts | 338° |
| 2026-05-05 07:22 | 56.91818 | -86.39597 | 33493 ft | 521 kts | 338° |
| 2026-05-05 07:23 | 56.98494 | -86.44734 | 33491 ft | 520 kts | 338° |
| 2026-05-05 07:23 | 57.05159 | -86.49885 | 33514 ft | 519 kts | 338° |
| 2026-05-05 07:24 | 57.11827 | -86.55055 | 33523 ft | 520 kts | 338° |
| 2026-05-05 07:24 | 57.18500 | -86.60250 | 33521 ft | 520 kts | 338° |
| 2026-05-05 07:25 | 57.25168 | -86.65462 | 33533 ft | 521 kts | 337° |
| 2026-05-05 07:25 | 57.31839 | -86.70695 | 33545 ft | 521 kts | 337° |
| 2026-05-05 07:26 | 57.38517 | -86.75955 | 33554 ft | 522 kts | 337° |
| 2026-05-05 07:26 | 57.45193 | -86.81241 | 33562 ft | 521 kts | 337° |
| 2026-05-05 07:27 | 57.51851 | -86.86529 | 33560 ft | 520 kts | 337° |
| 2026-05-05 07:27 | 57.58517 | -86.91843 | 33588 ft | 521 kts | 337° |
| 2026-05-05 07:28 | 57.65177 | -86.97171 | 33584 ft | 521 kts | 336° |
| 2026-05-05 07:28 | 57.71805 | -87.02502 | 33594 ft | 516 kts | 336° |
| 2026-05-05 07:29 | 57.78356 | -87.07786 | 33609 ft | 517 kts | 336° |
| 2026-05-05 07:29 | 57.84958 | -87.13133 | 33616 ft | 517 kts | 336° |
| 2026-05-05 07:30 | 57.91554 | -87.18499 | 33627 ft | 517 kts | 336° |
| 2026-05-05 07:30 | 58.01440 | -87.26580 | 33637 ft | 516 kts | 336° |
| 2026-05-05 07:31 | 58.08017 | -87.31984 | 33642 ft | 516 kts | 336° |
| 2026-05-05 07:31 | 58.14593 | -87.37407 | 33654 ft | 515 kts | 336° |
| 2026-05-05 07:32 | 58.20092 | -87.41961 | 33653 ft | 516 kts | 336° |
| 2026-05-05 07:32 | 58.26668 | -87.47426 | 33660 ft | 515 kts | 336° |
| 2026-05-05 07:33 | 58.33240 | -87.52910 | 33677 ft | 516 kts | 336° |
| 2026-05-05 07:33 | 58.39750 | -87.58366 | 33680 ft | 515 kts | 336° |
| 2026-05-05 07:34 | 58.46307 | -87.63882 | 33689 ft | 515 kts | 336° |
| 2026-05-05 07:34 | 58.52860 | -87.69417 | 33689 ft | 515 kts | 336° |
| 2026-05-05 07:35 | 58.59404 | -87.74964 | 33704 ft | 514 kts | 336° |
| 2026-05-05 07:35 | 58.65930 | -87.80523 | 33707 ft | 514 kts | 336° |
| 2026-05-05 07:36 | 58.72462 | -87.86109 | 33709 ft | 513 kts | 336° |
| 2026-05-05 07:36 | 58.78989 | -87.91715 | 33711 ft | 513 kts | 336° |
| 2026-05-05 07:37 | 58.85508 | -87.97334 | 33719 ft | 514 kts | 336° |
| 2026-05-05 07:37 | 58.92032 | -88.02983 | 33724 ft | 513 kts | 336° |
| 2026-05-05 07:38 | 58.98558 | -88.08659 | 33726 ft | 515 kts | 336° |
| 2026-05-05 07:38 | 59.05060 | -88.14342 | 33733 ft | 509 kts | 336° |
| 2026-05-05 07:39 | 59.11521 | -88.20004 | 33729 ft | 509 kts | 336° |
| 2026-05-05 07:39 | 59.17980 | -88.25686 | 33744 ft | 510 kts | 336° |
| 2026-05-05 07:40 | 59.24442 | -88.31400 | 33744 ft | 510 kts | 336° |
| 2026-05-05 07:40 | 59.30907 | -88.37140 | 33746 ft | 511 kts | 335° |
| 2026-05-05 07:41 | 59.37376 | -88.42904 | 33755 ft | 510 kts | 335° |
| 2026-05-05 07:41 | 59.43827 | -88.48681 | 33757 ft | 509 kts | 335° |
| 2026-05-05 07:42 | 59.50263 | -88.54467 | 33766 ft | 509 kts | 335° |
| 2026-05-05 07:42 | 59.56694 | -88.60275 | 33765 ft | 509 kts | 335° |
| 2026-05-05 07:43 | 59.63129 | -88.66110 | 33770 ft | 509 kts | 335° |
| 2026-05-05 07:43 | 59.69516 | -88.71925 | 33772 ft | 507 kts | 335° |
| 2026-05-05 07:44 | 59.75908 | -88.77772 | 33774 ft | 505 kts | 335° |
| 2026-05-05 07:44 | 59.82288 | -88.83627 | 33779 ft | 505 kts | 336° |
| 2026-05-05 07:45 | 59.88650 | -88.89490 | 33775 ft | 504 kts | 336° |
| 2026-05-05 07:45 | 59.95001 | -88.95370 | 33796 ft | 503 kts | 336° |
| 2026-05-05 07:46 | 60.01335 | -89.01270 | 33796 ft | 503 kts | 335° |
| 2026-05-05 07:46 | 60.07622 | -89.07442 | 33798 ft | 504 kts | 334° |
| 2026-05-05 07:47 | 60.13876 | -89.13776 | 33799 ft | 504 kts | 334° |
| 2026-05-05 07:47 | 60.20136 | -89.20106 | 33806 ft | 504 kts | 334° |
| 2026-05-05 07:48 | 60.26401 | -89.26424 | 33806 ft | 503 kts | 334° |
| 2026-05-05 07:48 | 60.32659 | -89.32738 | 33810 ft | 503 kts | 334° |
| 2026-05-05 07:49 | 60.38916 | -89.39090 | 33810 ft | 503 kts | 334° |
| 2026-05-05 07:49 | 60.45162 | -89.45458 | 33815 ft | 503 kts | 334° |
| 2026-05-05 07:50 | 60.51415 | -89.51864 | 33821 ft | 503 kts | 334° |
| 2026-05-05 07:50 | 60.57653 | -89.58287 | 33823 ft | 502 kts | 334° |
| 2026-05-05 07:51 | 60.63878 | -89.64723 | 33831 ft | 502 kts | 334° |
| 2026-05-05 07:51 | 60.70068 | -89.71144 | 33832 ft | 502 kts | 334° |
| 2026-05-05 07:52 | 60.76291 | -89.77631 | 33830 ft | 502 kts | 334° |
| 2026-05-05 07:52 | 60.82503 | -89.84137 | 33834 ft | 502 kts | 334° |
| 2026-05-05 07:53 | 60.88718 | -89.90673 | 33837 ft | 502 kts | 333° |
| 2026-05-05 07:53 | 60.94929 | -89.97235 | 33854 ft | 502 kts | 333° |
| 2026-05-05 07:54 | 61.01099 | -90.03903 | 33948 ft | 499 kts | 333° |
| 2026-05-05 07:54 | 61.07127 | -90.10933 | 34067 ft | 497 kts | 330° |
| 2026-05-05 07:55 | 61.12984 | -90.18508 | 34146 ft | 496 kts | 328° |
| 2026-05-05 07:55 | 61.18650 | -90.26689 | 34146 ft | 497 kts | 324° |
| 2026-05-05 07:56 | 61.24082 | -90.35598 | 34081 ft | 499 kts | 321° |
| 2026-05-05 07:56 | 61.29228 | -90.45367 | 33988 ft | 503 kts | 316° |
| 2026-05-05 07:57 | 61.34016 | -90.56052 | 33900 ft | 506 kts | 311° |
| 2026-05-05 07:57 | 61.38367 | -90.67646 | 33794 ft | 509 kts | 307° |
| 2026-05-05 07:58 | 61.42244 | -90.80041 | 33729 ft | 511 kts | 302° |
| 2026-05-05 07:58 | 61.45615 | -90.93102 | 33745 ft | 511 kts | 297° |
| 2026-05-05 07:59 | 61.48512 | -91.06662 | 33821 ft | 510 kts | 293° |
| 2026-05-05 07:59 | 61.50935 | -91.20595 | 33924 ft | 509 kts | 289° |
| 2026-05-05 08:00 | 61.52854 | -91.34856 | 33980 ft | 509 kts | 285° |
| 2026-05-05 08:00 | 61.54228 | -91.49405 | 33998 ft | 509 kts | 280° |
| 2026-05-05 08:01 | 61.55036 | -91.64054 | 34000 ft | 510 kts | 276° |
| 2026-05-05 08:01 | 61.55299 | -91.78939 | 33996 ft | 511 kts | 271° |
| 2026-05-05 08:02 | 61.55009 | -91.93862 | 33962 ft | 513 kts | 267° |
| 2026-05-05 08:02 | 61.54181 | -92.08731 | 33956 ft | 514 kts | 262° |
| 2026-05-05 08:03 | 61.52822 | -92.23446 | 33946 ft | 515 kts | 258° |
| 2026-05-05 08:03 | 61.50924 | -92.37907 | 33968 ft | 515 kts | 253° |
| 2026-05-05 08:04 | 61.48493 | -92.52015 | 33989 ft | 516 kts | 249° |
| 2026-05-05 08:04 | 61.45542 | -92.65704 | 33968 ft | 517 kts | 244° |
| 2026-05-05 08:05 | 61.42086 | -92.78910 | 33944 ft | 518 kts | 240° |
| 2026-05-05 08:05 | 61.38174 | -92.91568 | 33909 ft | 520 kts | 236° |
| 2026-05-05 08:06 | 61.33857 | -93.03667 | 33910 ft | 520 kts | 232° |
| 2026-05-05 08:06 | 61.29166 | -93.15127 | 33938 ft | 520 kts | 228° |
| 2026-05-05 08:07 | 61.24153 | -93.25815 | 33972 ft | 520 kts | 224° |
| 2026-05-05 08:07 | 61.18783 | -93.35837 | 34019 ft | 519 kts | 220° |
| 2026-05-05 08:08 | 61.13111 | -93.45088 | 34026 ft | 519 kts | 216° |
| 2026-05-05 08:08 | 61.07157 | -93.53536 | 34016 ft | 520 kts | 212° |
| 2026-05-05 08:09 | 61.00938 | -93.61165 | 34023 ft | 520 kts | 208° |
| 2026-05-05 08:09 | 60.94491 | -93.67958 | 34031 ft | 521 kts | 205° |
| 2026-05-05 08:10 | 60.87854 | -93.73904 | 34016 ft | 521 kts | 201° |
| 2026-05-05 08:10 | 60.81041 | -93.78997 | 34002 ft | 521 kts | 197° |
| 2026-05-05 08:11 | 60.74086 | -93.83202 | 34000 ft | 521 kts | 194° |
| 2026-05-05 08:11 | 60.67015 | -93.86526 | 33991 ft | 521 kts | 190° |
| 2026-05-05 08:12 | 60.59869 | -93.88954 | 34021 ft | 520 kts | 186° |
| 2026-05-05 08:12 | 60.52673 | -93.90284 | 34009 ft | 519 kts | 181° |
| 2026-05-05 08:13 | 60.45444 | -93.90535 | 33955 ft | 520 kts | 177° |
| 2026-05-05 08:13 | 60.38220 | -93.89842 | 33885 ft | 520 kts | 174° |
| 2026-05-05 08:14 | 60.31022 | -93.88262 | 33887 ft | 519 kts | 170° |
| 2026-05-05 08:14 | 60.23930 | -93.85810 | 33982 ft | 516 kts | 166° |
| 2026-05-05 08:15 | 60.16965 | -93.82540 | 34062 ft | 513 kts | 162° |
| 2026-05-05 08:15 | 60.10189 | -93.78185 | 34094 ft | 511 kts | 157° |
| 2026-05-05 08:16 | 60.03720 | -93.72330 | 33976 ft | 511 kts | 150° |
| 2026-05-05 08:16 | 60.00626 | -93.68802 | 33853 ft | 512 kts | 146° |
| 2026-05-05 08:16 | 59.97635 | -93.64914 | 33726 ft | 513 kts | 142° |
| 2026-05-05 08:17 | 59.94747 | -93.60712 | 33595 ft | 514 kts | 139° |
| 2026-05-05 08:17 | 59.91976 | -93.56209 | 33479 ft | 514 kts | 136° |
| 2026-05-05 08:17 | 59.86778 | -93.46453 | 33330 ft | 513 kts | 131° |
| 2026-05-05 08:18 | 59.82036 | -93.35920 | 33291 ft | 509 kts | 126° |
| 2026-05-05 08:18 | 59.77738 | -93.24827 | 33392 ft | 504 kts | 123° |
| 2026-05-05 08:19 | 59.74509 | -93.15266 | 33534 ft | 500 kts | 120° |
| 2026-05-05 08:19 | 59.70955 | -93.03528 | 33745 ft | 495 kts | 117° |
| 2026-05-05 08:20 | 59.69288 | -92.97579 | 33873 ft | 492 kts | 115° |
| 2026-05-05 08:20 | 59.67728 | -92.91570 | 33955 ft | 489 kts | 113° |
| 2026-05-05 08:20 | 59.65014 | -92.79292 | 34039 ft | 486 kts | 108° |
| 2026-05-05 08:21 | 59.62897 | -92.66593 | 33992 ft | 487 kts | 103° |
| 2026-05-05 08:21 | 59.61373 | -92.53541 | 33843 ft | 490 kts | 99° |
| 2026-05-05 08:22 | 59.60369 | -92.40191 | 33670 ft | 492 kts | 95° |
| 2026-05-05 08:22 | 59.59847 | -92.26707 | 33561 ft | 493 kts | 90° |
| 2026-05-05 08:23 | 59.59760 | -92.13199 | 33563 ft | 491 kts | 87° |
| 2026-05-05 08:23 | 59.60067 | -91.99760 | 33642 ft | 489 kts | 84° |
| 2026-05-05 08:24 | 59.60738 | -91.86539 | 33798 ft | 485 kts | 82° |
| 2026-05-05 08:24 | 59.61791 | -91.73418 | 33925 ft | 482 kts | 78° |
| 2026-05-05 08:25 | 59.63263 | -91.60520 | 33991 ft | 481 kts | 75° |
| 2026-05-05 08:25 | 59.65189 | -91.47848 | 33975 ft | 482 kts | 70° |
| 2026-05-05 08:26 | 59.67573 | -91.35449 | 33903 ft | 484 kts | 66° |
| 2026-05-05 08:26 | 59.70435 | -91.23352 | 33777 ft | 487 kts | 62° |
| 2026-05-05 08:27 | 59.73769 | -91.11631 | 33647 ft | 490 kts | 58° |
| 2026-05-05 08:27 | 59.77533 | -91.00327 | 33556 ft | 492 kts | 54° |
| 2026-05-05 08:28 | 59.81660 | -90.89497 | 33540 ft | 491 kts | 51° |
| 2026-05-05 08:28 | 59.86101 | -90.79209 | 33614 ft | 490 kts | 47° |
| 2026-05-05 08:29 | 59.90859 | -90.69535 | 33719 ft | 487 kts | 44° |
| 2026-05-05 08:30 | 59.98504 | -90.56230 | 33853 ft | 486 kts | 39° |
| 2026-05-05 08:30 | 60.03954 | -90.48207 | 33870 ft | 487 kts | 34° |
| 2026-05-05 08:31 | 60.09707 | -90.40979 | 33799 ft | 490 kts | 30° |
| 2026-05-05 08:31 | 60.15748 | -90.34590 | 33678 ft | 493 kts | 26° |
| 2026-05-05 08:32 | 60.22070 | -90.29111 | 33566 ft | 496 kts | 21° |
| 2026-05-05 08:32 | 60.28608 | -90.24580 | 33467 ft | 498 kts | 18° |
| 2026-05-05 08:33 | 60.35332 | -90.21175 | 33411 ft | 499 kts | 12° |
| 2026-05-05 08:33 | 60.42196 | -90.18902 | 33360 ft | 500 kts | 8° |
| 2026-05-05 08:34 | 60.49115 | -90.17594 | 33427 ft | 499 kts | 3° |
| 2026-05-05 08:34 | 60.56045 | -90.17473 | 33519 ft | 497 kts | 359° |
| 2026-05-05 08:35 | 60.62947 | -90.18349 | 33598 ft | 497 kts | 355° |
| 2026-05-05 08:35 | 60.69780 | -90.20336 | 33685 ft | 496 kts | 350° |
| 2026-05-05 08:36 | 60.76519 | -90.23404 | 33745 ft | 496 kts | 347° |
| 2026-05-05 08:36 | 60.83156 | -90.27254 | 33788 ft | 496 kts | 343° |
| 2026-05-05 08:37 | 60.89675 | -90.31992 | 33784 ft | 498 kts | 339° |
| 2026-05-05 08:37 | 60.95985 | -90.37682 | 33719 ft | 500 kts | 335° |
| 2026-05-05 08:38 | 61.02178 | -90.44283 | 33651 ft | 502 kts | 332° |
| 2026-05-05 08:38 | 61.08185 | -90.51684 | 33623 ft | 503 kts | 328° |
| 2026-05-05 08:39 | 61.13959 | -90.59867 | 33631 ft | 504 kts | 324° |
| 2026-05-05 08:39 | 61.19452 | -90.68891 | 33642 ft | 504 kts | 320° |
| 2026-05-05 08:40 | 61.24602 | -90.78790 | 33647 ft | 505 kts | 316° |
| 2026-05-05 08:40 | 61.29400 | -90.89439 | 33661 ft | 505 kts | 312° |
| 2026-05-05 08:41 | 61.33851 | -91.00766 | 33661 ft | 506 kts | 309° |
| 2026-05-05 08:41 | 61.37874 | -91.12797 | 33670 ft | 507 kts | 303° |
| 2026-05-05 08:42 | 61.41344 | -91.25624 | 33626 ft | 509 kts | 298° |
| 2026-05-05 08:42 | 61.44278 | -91.39104 | 33545 ft | 511 kts | 293° |
| 2026-05-05 08:43 | 61.46698 | -91.53100 | 33483 ft | 512 kts | 289° |
| 2026-05-05 08:43 | 61.48584 | -91.67463 | 33462 ft | 512 kts | 284° |
| 2026-05-05 08:44 | 61.49915 | -91.82120 | 33450 ft | 513 kts | 280° |
| 2026-05-05 08:44 | 61.50729 | -91.96974 | 33455 ft | 513 kts | 276° |
| 2026-05-05 08:45 | 61.51070 | -92.11908 | 33476 ft | 513 kts | 272° |
| 2026-05-05 08:45 | 61.50948 | -92.26850 | 33549 ft | 513 kts | 269° |
| 2026-05-05 08:46 | 61.50387 | -92.41720 | 33632 ft | 512 kts | 265° |
| 2026-05-05 08:46 | 61.49380 | -92.56368 | 33717 ft | 512 kts | 262° |
| 2026-05-05 08:47 | 61.47896 | -92.71040 | 33747 ft | 512 kts | 258° |
| 2026-05-05 08:47 | 61.45974 | -92.85302 | 33689 ft | 514 kts | 254° |
| 2026-05-05 08:48 | 61.43563 | -92.99426 | 33628 ft | 517 kts | 250° |
| 2026-05-05 08:48 | 61.40690 | -93.13222 | 33526 ft | 520 kts | 246° |
| 2026-05-05 08:49 | 61.37374 | -93.26678 | 33446 ft | 522 kts | 242° |
| 2026-05-05 08:49 | 61.33660 | -93.39703 | 33377 ft | 523 kts | 239° |
| 2026-05-05 08:50 | 61.29583 | -93.52268 | 33324 ft | 524 kts | 236° |
| 2026-05-05 08:50 | 61.25150 | -93.64340 | 33330 ft | 525 kts | 232° |
| 2026-05-05 08:51 | 61.20400 | -93.75813 | 33346 ft | 525 kts | 229° |
| 2026-05-05 08:51 | 61.15315 | -93.86733 | 33378 ft | 525 kts | 225° |
| 2026-05-05 08:52 | 61.09955 | -93.96972 | 33445 ft | 524 kts | 221° |
| 2026-05-05 08:52 | 61.04329 | -94.06541 | 33507 ft | 524 kts | 218° |
| 2026-05-05 08:53 | 60.98451 | -94.15428 | 33547 ft | 523 kts | 215° |
| 2026-05-05 08:53 | 60.92368 | -94.23643 | 33640 ft | 523 kts | 212° |
| 2026-05-05 08:54 | 60.86090 | -94.31208 | 33708 ft | 523 kts | 209° |
| 2026-05-05 08:54 | 60.79638 | -94.38072 | 33768 ft | 523 kts | 206° |
| 2026-05-05 08:55 | 60.73013 | -94.44224 | 33789 ft | 523 kts | 202° |
| 2026-05-05 08:55 | 60.66236 | -94.49644 | 33800 ft | 524 kts | 199° |
| 2026-05-05 08:56 | 60.59326 | -94.54328 | 33782 ft | 524 kts | 197° |
| 2026-05-05 08:56 | 60.52291 | -94.58299 | 33753 ft | 524 kts | 193° |
| 2026-05-05 08:57 | 60.45175 | -94.61571 | 33738 ft | 525 kts | 191° |
| 2026-05-05 08:57 | 60.37987 | -94.64180 | 33723 ft | 525 kts | 188° |
| 2026-05-05 08:58 | 60.30801 | -94.66125 | 33699 ft | 525 kts | 185° |
| 2026-05-05 08:58 | 60.23526 | -94.67413 | 33684 ft | 525 kts | 182° |
| 2026-05-05 08:59 | 60.16231 | -94.68156 | 33681 ft | 524 kts | 182° |
| 2026-05-05 08:59 | 60.08952 | -94.68689 | 33770 ft | 523 kts | 181° |
| 2026-05-05 09:00 | 60.01686 | -94.68975 | 33853 ft | 522 kts | 180° |
| 2026-05-05 09:00 | 59.94421 | -94.68935 | 33903 ft | 522 kts | 178° |
| 2026-05-05 09:01 | 59.87173 | -94.68535 | 33920 ft | 522 kts | 177° |
| 2026-05-05 09:01 | 59.79915 | -94.67725 | 33908 ft | 522 kts | 175° |
| 2026-05-05 09:02 | 59.72665 | -94.66504 | 33875 ft | 523 kts | 173° |
| 2026-05-05 09:02 | 59.65433 | -94.64907 | 33872 ft | 523 kts | 172° |
| 2026-05-05 09:03 | 59.58218 | -94.63004 | 33878 ft | 523 kts | 171° |
| 2026-05-05 09:03 | 59.51030 | -94.60815 | 33918 ft | 522 kts | 169° |
| 2026-05-05 09:04 | 59.43891 | -94.58309 | 33939 ft | 521 kts | 167° |
| 2026-05-05 09:04 | 59.36802 | -94.55365 | 33943 ft | 520 kts | 165° |
| 2026-05-05 09:05 | 59.29792 | -94.51866 | 33930 ft | 520 kts | 162° |
| 2026-05-05 09:05 | 59.22888 | -94.47656 | 33890 ft | 519 kts | 158° |
| 2026-05-05 09:06 | 59.17325 | -94.43206 | 33705 ft | 521 kts | 153° |
| 2026-05-05 09:06 | 59.14049 | -94.40196 | 33592 ft | 521 kts | 151° |
| 2026-05-05 09:06 | 59.10823 | -94.36972 | 33497 ft | 521 kts | 149° |
| 2026-05-05 09:07 | 59.04572 | -94.29883 | 33329 ft | 520 kts | 145° |
| 2026-05-05 09:07 | 58.98557 | -94.22106 | 33206 ft | 518 kts | 142° |
| 2026-05-05 09:08 | 58.92807 | -94.13742 | 33150 ft | 516 kts | 138° |
| 2026-05-05 09:08 | 58.87388 | -94.04702 | 33110 ft | 513 kts | 135° |
| 2026-05-05 09:09 | 58.82260 | -93.95144 | 33115 ft | 511 kts | 132° |
| 2026-05-05 09:09 | 58.77407 | -93.85198 | 33174 ft | 508 kts | 129° |
| 2026-05-05 09:10 | 58.72808 | -93.74915 | 33287 ft | 505 kts | 127° |
| 2026-05-05 09:10 | 58.68558 | -93.64235 | 33406 ft | 501 kts | 123° |
| 2026-05-05 09:11 | 58.64656 | -93.53192 | 33522 ft | 498 kts | 120° |
| 2026-05-05 09:11 | 58.61052 | -93.41861 | 33601 ft | 496 kts | 117° |
| 2026-05-05 09:12 | 58.57742 | -93.30264 | 33666 ft | 495 kts | 114° |
| 2026-05-05 09:12 | 58.55305 | -93.17952 | 33398 ft | 497 kts | 103° |
| 2026-05-05 09:12 | 58.54522 | -93.11500 | 33181 ft | 500 kts | 99° |
| 2026-05-05 09:13 | 58.53985 | -93.04900 | 32890 ft | 503 kts | 95° |
| 2026-05-05 09:13 | 58.53667 | -92.98232 | 32557 ft | 505 kts | 92° |
| 2026-05-05 09:13 | 58.53533 | -92.91501 | 32214 ft | 506 kts | 89° |
| 2026-05-05 09:13 | 58.53554 | -92.84758 | 31814 ft | 508 kts | 86° |
| 2026-05-05 09:14 | 58.53701 | -92.78066 | 31369 ft | 511 kts | 84° |
| 2026-05-05 09:14 | 58.53948 | -92.71259 | 30764 ft | 516 kts | 83° |
| 2026-05-05 09:14 | 58.54268 | -92.64349 | 29931 ft | 526 kts | 83° |
| 2026-05-05 09:14 | 58.54630 | -92.57272 | 28138 ft | 543 kts | 82° |
| 2026-05-05 09:15 | 58.54986 | -92.50184 | 22654 ft | 518 kts | 81° |
| 2026-05-05 09:15 | 58.55289 | -92.43515 | 13395 ft | 488 kts | 83° |
| 2026-05-05 09:15 | 58.55553 | -92.37347 | 1779 ft | 434 kts | 83° |
| 2026-05-05 09:15 | 58.55640 | -92.33977 | 224 ft | 240 kts | 83° |
| 2026-05-05 09:16 | 58.55775 | -92.30614 | 658 ft | 263 kts | 81° |
| 2026-05-05 09:16 | 58.55981 | -92.27129 | 1719 ft | 259 kts | 79° |
| 2026-05-05 09:16 | 58.56230 | -92.23871 | 3253 ft | 234 kts | 77° |
| 2026-05-05 09:16 | 58.56505 | -92.20923 | 4618 ft | 219 kts | 75° |
| 2026-05-05 09:17 | 58.56837 | -92.18024 | 5248 ft | 232 kts | 73° |
| 2026-05-05 09:17 | 58.57281 | -92.14852 | 5352 ft | 262 kts | 70° |
| 2026-05-05 09:17 | 58.57859 | -92.11368 | 5650 ft | 283 kts | 68° |
| 2026-05-05 09:17 | 58.58534 | -92.07823 | 6483 ft | 281 kts | 66° |
| 2026-05-05 09:18 | 58.59252 | -92.04464 | 7700 ft | 263 kts | 64° |
| 2026-05-05 09:18 | 58.59992 | -92.01378 | 8870 ft | 249 kts | 62° |
| 2026-05-05 09:18 | 58.60793 | -91.98396 | 9460 ft | 257 kts | 59° |
| 2026-05-05 09:18 | 58.61725 | -91.95302 | 9582 ft | 280 kts | 57° |
| 2026-05-05 09:19 | 58.62818 | -91.92042 | 9755 ft | 299 kts | 54° |
| 2026-05-05 09:19 | 58.64034 | -91.88759 | 10328 ft | 301 kts | 52° |
| 2026-05-05 09:19 | 58.65305 | -91.85649 | 11293 ft | 290 kts | 50° |
| 2026-05-05 09:19 | 58.66600 | -91.82806 | 12313 ft | 278 kts | 46° |
| 2026-05-05 09:20 | 58.67946 | -91.80152 | 12990 ft | 279 kts | 44° |
| 2026-05-05 09:20 | 58.69408 | -91.77552 | 13168 ft | 295 kts | 41° |
| 2026-05-05 09:20 | 58.71033 | -91.74940 | 13219 ft | 313 kts | 38° |
| 2026-05-05 09:20 | 58.72776 | -91.72412 | 13581 ft | 321 kts | 35° |
| 2026-05-05 09:21 | 58.74617 | -91.70007 | 14216 ft | 317 kts | 33° |
| 2026-05-05 09:21 | 58.76470 | -91.67843 | 15075 ft | 306 kts | 30° |
| 2026-05-05 09:21 | 58.78323 | -91.65917 | 15821 ft | 301 kts | 27° |
| 2026-05-05 09:21 | 58.80222 | -91.64154 | 16184 ft | 308 kts | 25° |
| 2026-05-05 09:22 | 58.82239 | -91.62485 | 16258 ft | 323 kts | 22° |
| 2026-05-05 09:22 | 58.84392 | -91.60918 | 16352 ft | 337 kts | 20° |
| 2026-05-05 09:22 | 58.86640 | -91.59527 | 16745 ft | 340 kts | 17° |
| 2026-05-05 09:22 | 58.88914 | -91.58366 | 17435 ft | 335 kts | 14° |
| 2026-05-05 09:23 | 58.91172 | -91.57472 | 18253 ft | 327 kts | 11° |
| 2026-05-05 09:23 | 58.93408 | -91.56842 | 18779 ft | 325 kts | 8° |
| 2026-05-05 09:23 | 58.95692 | -91.56507 | 18976 ft | 334 kts | 4° |
| 2026-05-05 09:23 | 58.98070 | -91.56488 | 18984 ft | 349 kts | 359° |
| 2026-05-05 09:24 | 59.00537 | -91.56882 | 19077 ft | 361 kts | 354° |
| 2026-05-05 09:24 | 59.03028 | -91.57730 | 19361 ft | 366 kts | 349° |
| 2026-05-05 09:24 | 59.05501 | -91.58945 | 19846 ft | 365 kts | 345° |
| 2026-05-05 09:24 | 59.07896 | -91.60447 | 20512 ft | 358 kts | 341° |
| 2026-05-05 09:25 | 59.10193 | -91.62188 | 21223 ft | 351 kts | 339° |
| 2026-05-05 09:25 | 59.12423 | -91.64082 | 21699 ft | 351 kts | 338° |
| 2026-05-05 09:25 | 59.14664 | -91.66086 | 21864 ft | 359 kts | 336° |
| 2026-05-05 09:25 | 59.16947 | -91.68241 | 21866 ft | 371 kts | 335° |
| 2026-05-05 09:26 | 59.19262 | -91.70612 | 21983 ft | 379 kts | 332° |
| 2026-05-05 09:26 | 59.21558 | -91.73189 | 22304 ft | 382 kts | 330° |
| 2026-05-05 09:26 | 59.23820 | -91.75884 | 22832 ft | 379 kts | 330° |
| 2026-05-05 09:26 | 59.26051 | -91.78542 | 23465 ft | 373 kts | 331° |
| 2026-05-05 09:27 | 59.28271 | -91.81113 | 23904 ft | 370 kts | 330° |
| 2026-05-05 09:27 | 59.30498 | -91.83675 | 24116 ft | 374 kts | 330° |
| 2026-05-05 09:27 | 59.32734 | -91.86382 | 24182 ft | 383 kts | 329° |
| 2026-05-05 09:27 | 59.34970 | -91.89309 | 24281 ft | 389 kts | 327° |
| 2026-05-05 09:28 | 59.37177 | -91.92435 | 24497 ft | 393 kts | 324° |
| 2026-05-05 09:28 | 59.39327 | -91.95749 | 24824 ft | 392 kts | 324° |
| 2026-05-05 09:28 | 59.41383 | -91.99233 | 25304 ft | 388 kts | 321° |
| 2026-05-05 09:28 | 59.43335 | -92.02852 | 25844 ft | 383 kts | 319° |
| 2026-05-05 09:29 | 59.45185 | -92.06609 | 26203 ft | 383 kts | 316° |
| 2026-05-05 09:29 | 59.46966 | -92.10558 | 26294 ft | 390 kts | 314° |
| 2026-05-05 09:29 | 59.48678 | -92.14709 | 26208 ft | 402 kts | 311° |
| 2026-05-05 09:29 | 59.50360 | -92.19190 | 26163 ft | 412 kts | 309° |
| 2026-05-05 09:30 | 59.51967 | -92.23909 | 26228 ft | 419 kts | 306° |
| 2026-05-05 09:30 | 59.53486 | -92.28842 | 26419 ft | 422 kts | 303° |
| 2026-05-05 09:30 | 59.54895 | -92.33912 | 26723 ft | 422 kts | 301° |
| 2026-05-05 09:30 | 59.56188 | -92.39093 | 27147 ft | 420 kts | 298° |
| 2026-05-05 09:31 | 59.57356 | -92.44340 | 27598 ft | 416 kts | 295° |
| 2026-05-05 09:31 | 59.58400 | -92.49656 | 27945 ft | 416 kts | 293° |
| 2026-05-05 09:31 | 59.59318 | -92.55087 | 28093 ft | 420 kts | 290° |
| 2026-05-05 09:32 | 59.60805 | -92.66481 | 27986 ft | 437 kts | 286° |
| 2026-05-05 09:32 | 59.61879 | -92.78436 | 28202 ft | 446 kts | 282° |
| 2026-05-05 09:32 | 59.62249 | -92.84520 | 28445 ft | 447 kts | 279° |
| 2026-05-05 09:33 | 59.62503 | -92.90648 | 28758 ft | 447 kts | 277° |
| 2026-05-05 09:33 | 59.62634 | -92.96785 | 29090 ft | 446 kts | 274° |
| 2026-05-05 09:33 | 59.62641 | -93.02900 | 29417 ft | 445 kts | 272° |
| 2026-05-05 09:33 | 59.62522 | -93.09023 | 29643 ft | 447 kts | 269° |
| 2026-05-05 09:34 | 59.62271 | -93.15172 | 29724 ft | 452 kts | 267° |
| 2026-05-05 09:34 | 59.61342 | -93.27607 | 29677 ft | 464 kts | 262° |
| 2026-05-05 09:35 | 59.59847 | -93.40180 | 29746 ft | 475 kts | 257° |
| 2026-05-05 09:35 | 59.57838 | -93.52690 | 30013 ft | 481 kts | 253° |
| 2026-05-05 09:35 | 59.56648 | -93.58878 | 30164 ft | 483 kts | 251° |
| 2026-05-05 09:36 | 59.55344 | -93.64974 | 30372 ft | 483 kts | 248° |
| 2026-05-05 09:36 | 59.53927 | -93.70984 | 30583 ft | 483 kts | 246° |
| 2026-05-05 09:36 | 59.52407 | -93.76884 | 30793 ft | 483 kts | 244° |
| 2026-05-05 09:36 | 59.50809 | -93.82591 | 30995 ft | 482 kts | 242° |
| 2026-05-05 09:37 | 59.49065 | -93.88326 | 31186 ft | 482 kts | 239° |
| 2026-05-05 09:37 | 59.47234 | -93.93856 | 31317 ft | 483 kts | 237° |
| 2026-05-05 09:37 | 59.43245 | -94.04422 | 31466 ft | 488 kts | 232° |
| 2026-05-05 09:38 | 59.38695 | -94.14577 | 31477 ft | 496 kts | 227° |
| 2026-05-05 09:38 | 59.33690 | -94.24053 | 31462 ft | 504 kts | 222° |
| 2026-05-05 09:39 | 59.28293 | -94.32810 | 31484 ft | 510 kts | 218° |
| 2026-05-05 09:39 | 59.22508 | -94.40930 | 31624 ft | 514 kts | 214° |
| 2026-05-05 09:40 | 59.16448 | -94.48340 | 31776 ft | 515 kts | 210° |
| 2026-05-05 09:40 | 59.10183 | -94.55101 | 31980 ft | 515 kts | 207° |
| 2026-05-05 09:41 | 59.06988 | -94.58265 | 32106 ft | 515 kts | 206° |
| 2026-05-05 09:41 | 59.03767 | -94.61273 | 32241 ft | 514 kts | 205° |
| 2026-05-05 09:41 | 59.00510 | -94.64131 | 32364 ft | 513 kts | 203° |
| 2026-05-05 09:41 | 58.97224 | -94.66835 | 32483 ft | 513 kts | 202° |
| 2026-05-05 09:42 | 58.93911 | -94.69380 | 32594 ft | 512 kts | 200° |
| 2026-05-05 09:42 | 58.90565 | -94.71770 | 32699 ft | 512 kts | 199° |
| 2026-05-05 09:42 | 58.83794 | -94.76064 | 32842 ft | 512 kts | 196° |
| 2026-05-05 09:43 | 58.76907 | -94.79706 | 32917 ft | 514 kts | 193° |
| 2026-05-05 09:43 | 58.69903 | -94.82692 | 32918 ft | 517 kts | 190° |
| 2026-05-05 09:44 | 58.62806 | -94.85029 | 32891 ft | 519 kts | 187° |
| 2026-05-05 09:44 | 58.55613 | -94.86753 | 32865 ft | 522 kts | 184° |
| 2026-05-05 09:45 | 58.48360 | -94.87899 | 32858 ft | 524 kts | 182° |
| 2026-05-05 09:45 | 58.41077 | -94.88506 | 32907 ft | 524 kts | 180° |
| 2026-05-05 09:46 | 58.33799 | -94.88612 | 33010 ft | 523 kts | 178° |
| 2026-05-05 09:46 | 58.26541 | -94.88233 | 33121 ft | 521 kts | 175° |
| 2026-05-05 09:47 | 58.19319 | -94.87370 | 33240 ft | 519 kts | 173° |
| 2026-05-05 09:47 | 58.12191 | -94.86023 | 33345 ft | 518 kts | 171° |
| 2026-05-05 09:48 | 58.05064 | -94.84158 | 33433 ft | 517 kts | 169° |
| 2026-05-05 09:48 | 57.97996 | -94.81766 | 33475 ft | 516 kts | 167° |
| 2026-05-05 09:49 | 57.90981 | -94.78832 | 33475 ft | 516 kts | 164° |
| 2026-05-05 09:49 | 57.84039 | -94.75361 | 33445 ft | 517 kts | 162° |
| 2026-05-05 09:50 | 57.77162 | -94.71374 | 33422 ft | 517 kts | 160° |
| 2026-05-05 09:50 | 57.70359 | -94.66950 | 33364 ft | 518 kts | 158° |
| 2026-05-05 09:51 | 57.63634 | -94.62125 | 33321 ft | 518 kts | 156° |
| 2026-05-05 09:51 | 57.57002 | -94.56883 | 33267 ft | 517 kts | 154° |
| 2026-05-05 09:52 | 57.50474 | -94.51233 | 33243 ft | 517 kts | 152° |
| 2026-05-05 09:52 | 57.44060 | -94.45218 | 33219 ft | 516 kts | 150° |
| 2026-05-05 09:53 | 57.37758 | -94.38851 | 33160 ft | 516 kts | 148° |
| 2026-05-05 09:53 | 57.31566 | -94.32159 | 33132 ft | 515 kts | 146° |
| 2026-05-05 09:54 | 57.26530 | -94.26312 | 33111 ft | 514 kts | 144° |
| 2026-05-05 09:54 | 57.20647 | -94.18826 | 33068 ft | 513 kts | 141° |
| 2026-05-05 09:55 | 57.15012 | -94.10774 | 33035 ft | 512 kts | 138° |
| 2026-05-05 09:55 | 57.09745 | -94.02003 | 32949 ft | 511 kts | 133° |
| 2026-05-05 09:56 | 57.04776 | -93.92667 | 32864 ft | 510 kts | 130° |
| 2026-05-05 09:56 | 57.00034 | -93.82997 | 32775 ft | 510 kts | 129° |
| 2026-05-05 09:57 | 56.95354 | -93.73235 | 32695 ft | 509 kts | 128° |
| 2026-05-05 09:57 | 56.90718 | -93.63429 | 32655 ft | 509 kts | 128° |
| 2026-05-05 09:58 | 56.86116 | -93.53615 | 32633 ft | 508 kts | 128° |
| 2026-05-05 09:58 | 56.81520 | -93.43837 | 32635 ft | 507 kts | 128° |
| 2026-05-05 09:59 | 56.76971 | -93.34039 | 32662 ft | 505 kts | 128° |
| 2026-05-05 09:59 | 56.72478 | -93.24329 | 32699 ft | 504 kts | 128° |
| 2026-05-05 10:00 | 56.68036 | -93.14489 | 32793 ft | 502 kts | 127° |
| 2026-05-05 10:00 | 56.63807 | -93.04425 | 32899 ft | 500 kts | 123° |
| 2026-05-05 10:01 | 56.59901 | -92.94011 | 32973 ft | 498 kts | 121° |
| 2026-05-05 10:01 | 56.56351 | -92.83259 | 33054 ft | 497 kts | 117° |
| 2026-05-05 10:02 | 56.53182 | -92.72126 | 33095 ft | 496 kts | 114° |
| 2026-05-05 10:02 | 56.50412 | -92.60685 | 33106 ft | 496 kts | 110° |
| 2026-05-05 10:03 | 56.48033 | -92.48963 | 33079 ft | 496 kts | 107° |
| 2026-05-05 10:03 | 56.46046 | -92.37004 | 33050 ft | 497 kts | 103° |
| 2026-05-05 10:04 | 56.44449 | -92.24854 | 33003 ft | 497 kts | 100° |
| 2026-05-05 10:04 | 56.43249 | -92.12586 | 32973 ft | 496 kts | 97° |
| 2026-05-05 10:05 | 56.42462 | -92.00220 | 32913 ft | 495 kts | 94° |
| 2026-05-05 10:05 | 56.42082 | -91.87821 | 32868 ft | 495 kts | 90° |
| 2026-05-05 10:06 | 56.42129 | -91.75390 | 32784 ft | 495 kts | 87° |
| 2026-05-05 10:06 | 56.42638 | -91.63003 | 32703 ft | 495 kts | 83° |
| 2026-05-05 10:07 | 56.43620 | -91.50712 | 32589 ft | 495 kts | 79° |
| 2026-05-05 10:07 | 56.45025 | -91.38616 | 32483 ft | 495 kts | 76° |
| 2026-05-05 10:08 | 56.46829 | -91.26508 | 32318 ft | 495 kts | 73° |
| 2026-05-05 10:08 | 56.48957 | -91.14640 | 32127 ft | 496 kts | 70° |
| 2026-05-05 10:09 | 56.50134 | -91.08766 | 32021 ft | 496 kts | 69° |
| 2026-05-05 10:09 | 56.51382 | -91.02948 | 31851 ft | 497 kts | 68° |
| 2026-05-05 10:09 | 56.52702 | -90.97156 | 31678 ft | 497 kts | 67° |
| 2026-05-05 10:09 | 56.54088 | -90.91410 | 31424 ft | 499 kts | 66° |
| 2026-05-05 10:10 | 56.55537 | -90.85685 | 31132 ft | 501 kts | 65° |
| 2026-05-05 10:10 | 56.57042 | -90.79974 | 30736 ft | 504 kts | 64° |
| 2026-05-05 10:10 | 56.58606 | -90.74249 | 30165 ft | 510 kts | 64° |
| 2026-05-05 10:10 | 56.60233 | -90.68462 | 29201 ft | 521 kts | 63° |
| 2026-05-05 10:11 | 56.61931 | -90.62512 | 27364 ft | 541 kts | 63° |
| 2026-05-05 10:11 | 56.63650 | -90.56488 | 22177 ft | 521 kts | 63° |
| 2026-05-05 10:11 | 56.65214 | -90.50874 | 13287 ft | 486 kts | 64° |
| 2026-05-05 10:11 | 56.66624 | -90.45595 | 1654 ft | 428 kts | 62° |